sensor_id;sensor_type;location;lat;lon;timestamp;pressure;altitude;pressure_sealevel;temperature;humidity
50356;BME280;36264;51.296;-0.602;2023-08-20T00:01:43;101759.69;;;19.94;100.00
50356;BME280;36264;51.296;-0.602;2023-08-20T00:04:09;101756.81;;;19.99;100.00
50356;BME280;36264;51.296;-0.602;2023-08-20T00:06:35;101755.50;;;19.90;100.00
50356;BME280;36264;51.296;-0.602;2023-08-20T00:09:00;101752.53;;;19.80;100.00
50356;BME280;36264;51.296;-0.602;2023-08-20T00:11:26;101765.16;;;19.73;100.00
50356;BME280;36264;51.296;-0.602;2023-08-20T00:13:51;101770.69;;;19.69;100.00
50356;BME280;36264;51.296;-0.602;2023-08-20T00:16:17;101769.84;;;19.68;100.00
50356;BME280;36264;51.296;-0.602;2023-08-20T00:18:42;101773.56;;;19.64;100.00
50356;BME280;36264;51.296;-0.602;2023-08-20T00:21:08;101777.44;;;19.57;100.00
50356;BME280;36264;51.296;-0.602;2023-08-20T00:23:35;101777.19;;;19.62;100.00
50356;BME280;36264;51.296;-0.602;2023-08-20T00:26:01;101774.03;;;19.55;100.00
50356;BME280;36264;51.296;-0.602;2023-08-20T00:28:27;101778.78;;;19.48;100.00
50356;BME280;36264;51.296;-0.602;2023-08-20T00:30:53;101784.13;;;19.47;100.00
50356;BME280;36264;51.296;-0.602;2023-08-20T00:33:18;101784.13;;;19.47;100.00
50356;BME280;36264;51.296;-0.602;2023-08-20T00:35:43;101784.88;;;19.49;100.00
50356;BME280;36264;51.296;-0.602;2023-08-20T00:38:09;101791.78;;;19.51;100.00
50356;BME280;36264;51.296;-0.602;2023-08-20T00:40:34;101794.03;;;19.59;100.00
50356;BME280;36264;51.296;-0.602;2023-08-20T00:43:00;101791.00;;;19.67;100.00
50356;BME280;36264;51.296;-0.602;2023-08-20T00:45:26;101797.19;;;19.66;100.00
50356;BME280;36264;51.296;-0.602;2023-08-20T00:47:52;101801.78;;;19.62;100.00
50356;BME280;36264;51.296;-0.602;2023-08-20T00:50:18;101801.31;;;19.71;100.00
50356;BME280;36264;51.296;-0.602;2023-08-20T00:52:45;101797.78;;;19.71;100.00
50356;BME280;36264;51.296;-0.602;2023-08-20T00:55:11;101796.59;;;19.78;100.00
50356;BME280;36264;51.296;-0.602;2023-08-20T00:57:38;101794.31;;;19.88;100.00
50356;BME280;36264;51.296;-0.602;2023-08-20T01:00:04;101797.22;;;19.99;100.00
50356;BME280;36264;51.296;-0.602;2023-08-20T01:02:34;101794.38;;;19.86;100.00
50356;BME280;36264;51.296;-0.602;2023-08-20T01:05:00;101800.09;;;19.95;100.00
50356;BME280;36264;51.296;-0.602;2023-08-20T01:12:38;101787.94;;;19.92;100.00
50356;BME280;36264;51.296;-0.602;2023-08-20T01:15:04;101782.75;;;19.90;100.00
50356;BME280;36264;51.296;-0.602;2023-08-20T01:17:30;101791.22;;;19.80;100.00
50356;BME280;36264;51.296;-0.602;2023-08-20T01:19:56;101788.13;;;19.71;100.00
50356;BME280;36264;51.296;-0.602;2023-08-20T01:30:15;101814.63;;;19.68;100.00
50356;BME280;36264;51.296;-0.602;2023-08-20T01:32:41;101815.63;;;19.66;100.00
50356;BME280;36264;51.296;-0.602;2023-08-20T01:35:17;101810.69;;;19.77;100.00
50356;BME280;36264;51.296;-0.602;2023-08-20T01:37:43;101814.59;;;19.52;100.00
50356;BME280;36264;51.296;-0.602;2023-08-20T01:40:08;101824.41;;;19.49;100.00
50356;BME280;36264;51.296;-0.602;2023-08-20T01:42:36;101826.25;;;19.64;100.00
50356;BME280;36264;51.296;-0.602;2023-08-20T01:45:02;101827.19;;;19.63;100.00
50356;BME280;36264;51.296;-0.602;2023-08-20T01:47:28;101834.00;;;19.67;100.00
50356;BME280;36264;51.296;-0.602;2023-08-20T01:49:53;101833.94;;;19.69;100.00
50356;BME280;36264;51.296;-0.602;2023-08-20T01:52:19;101826.53;;;19.76;100.00
50356;BME280;36264;51.296;-0.602;2023-08-20T01:54:44;101828.91;;;19.82;100.00
50356;BME280;36264;51.296;-0.602;2023-08-20T01:57:09;101830.78;;;19.80;100.00
50356;BME280;36264;51.296;-0.602;2023-08-20T01:59:35;101825.94;;;19.88;100.00
50356;BME280;36264;51.296;-0.602;2023-08-20T02:02:01;101830.38;;;19.70;100.00
50356;BME280;36264;51.296;-0.602;2023-08-20T02:04:26;101832.38;;;19.65;100.00
50356;BME280;36264;51.296;-0.602;2023-08-20T02:06:52;101821.47;;;19.55;100.00
50356;BME280;36264;51.296;-0.602;2023-08-20T02:09:17;101825.06;;;19.54;100.00
50356;BME280;36264;51.296;-0.602;2023-08-20T02:11:44;101826.22;;;19.48;100.00
50356;BME280;36264;51.296;-0.602;2023-08-20T02:14:10;101834.19;;;19.47;100.00
50356;BME280;36264;51.296;-0.602;2023-08-20T02:16:35;101838.53;;;19.48;100.00
50356;BME280;36264;51.296;-0.602;2023-08-20T02:19:01;101836.81;;;19.47;100.00
50356;BME280;36264;51.296;-0.602;2023-08-20T02:21:28;101836.22;;;19.42;100.00
50356;BME280;36264;51.296;-0.602;2023-08-20T02:23:53;101832.72;;;19.41;100.00
50356;BME280;36264;51.296;-0.602;2023-08-20T02:26:19;101828.47;;;19.39;100.00
50356;BME280;36264;51.296;-0.602;2023-08-20T02:28:44;101828.63;;;19.35;100.00
50356;BME280;36264;51.296;-0.602;2023-08-20T02:31:10;101826.97;;;19.33;100.00
50356;BME280;36264;51.296;-0.602;2023-08-20T02:33:35;101827.69;;;19.36;100.00
50356;BME280;36264;51.296;-0.602;2023-08-20T02:36:04;101834.47;;;19.58;100.00
50356;BME280;36264;51.296;-0.602;2023-08-20T02:38:29;101830.56;;;19.32;100.00
50356;BME280;36264;51.296;-0.602;2023-08-20T02:40:55;101834.13;;;19.31;100.00
50356;BME280;36264;51.296;-0.602;2023-08-20T02:43:20;101839.63;;;19.26;100.00
50356;BME280;36264;51.296;-0.602;2023-08-20T02:45:46;101825.53;;;19.27;100.00
50356;BME280;36264;51.296;-0.602;2023-08-20T02:48:12;101832.19;;;19.34;100.00
50356;BME280;36264;51.296;-0.602;2023-08-20T02:50:37;101838.69;;;19.27;100.00
50356;BME280;36264;51.296;-0.602;2023-08-20T02:53:03;101840.63;;;19.24;100.00
50356;BME280;36264;51.296;-0.602;2023-08-20T02:55:29;101823.50;;;19.32;100.00
50356;BME280;36264;51.296;-0.602;2023-08-20T02:57:55;101829.84;;;19.28;100.00
50356;BME280;36264;51.296;-0.602;2023-08-20T03:00:20;101838.06;;;19.22;100.00
50356;BME280;36264;51.296;-0.602;2023-08-20T03:02:46;101837.38;;;19.18;100.00
50356;BME280;36264;51.296;-0.602;2023-08-20T03:05:11;101834.13;;;19.13;100.00
50356;BME280;36264;51.296;-0.602;2023-08-20T03:07:36;101834.56;;;19.04;100.00
50356;BME280;36264;51.296;-0.602;2023-08-20T03:10:02;101834.72;;;19.01;100.00
50356;BME280;36264;51.296;-0.602;2023-08-20T03:12:28;101831.38;;;18.97;100.00
50356;BME280;36264;51.296;-0.602;2023-08-20T03:14:54;101838.53;;;18.95;100.00
50356;BME280;36264;51.296;-0.602;2023-08-20T03:17:19;101831.63;;;18.93;100.00
50356;BME280;36264;51.296;-0.602;2023-08-20T03:19:56;101839.78;;;19.23;100.00
50356;BME280;36264;51.296;-0.602;2023-08-20T03:22:22;101833.94;;;18.99;100.00
50356;BME280;36264;51.296;-0.602;2023-08-20T03:24:47;101841.31;;;18.92;100.00
50356;BME280;36264;51.296;-0.602;2023-08-20T03:27:13;101836.88;;;18.93;100.00
50356;BME280;36264;51.296;-0.602;2023-08-20T03:29:38;101842.28;;;18.90;100.00
50356;BME280;36264;51.296;-0.602;2023-08-20T03:32:04;101835.31;;;18.89;100.00
50356;BME280;36264;51.296;-0.602;2023-08-20T03:34:29;101839.91;;;18.83;100.00
50356;BME280;36264;51.296;-0.602;2023-08-20T03:36:54;101835.66;;;18.81;100.00
50356;BME280;36264;51.296;-0.602;2023-08-20T03:39:20;101840.28;;;18.76;100.00
50356;BME280;36264;51.296;-0.602;2023-08-20T03:41:45;101842.59;;;18.64;100.00
50356;BME280;36264;51.296;-0.602;2023-08-20T03:44:11;101849.22;;;18.54;100.00
50356;BME280;36264;51.296;-0.602;2023-08-20T03:46:36;101842.09;;;18.56;100.00
50356;BME280;36264;51.296;-0.602;2023-08-20T03:49:01;101851.63;;;18.59;100.00
50356;BME280;36264;51.296;-0.602;2023-08-20T03:51:27;101849.09;;;18.57;100.00
50356;BME280;36264;51.296;-0.602;2023-08-20T03:53:52;101846.59;;;18.54;100.00
50356;BME280;36264;51.296;-0.602;2023-08-20T03:56:17;101852.13;;;18.48;100.00
50356;BME280;36264;51.296;-0.602;2023-08-20T03:58:43;101845.38;;;18.42;100.00
50356;BME280;36264;51.296;-0.602;2023-08-20T04:01:08;101842.81;;;18.41;100.00
50356;BME280;36264;51.296;-0.602;2023-08-20T04:03:33;101845.44;;;18.41;100.00
50356;BME280;36264;51.296;-0.602;2023-08-20T04:05:59;101851.72;;;18.38;100.00
50356;BME280;36264;51.296;-0.602;2023-08-20T04:08:24;101849.16;;;18.37;100.00
50356;BME280;36264;51.296;-0.602;2023-08-20T04:10:49;101854.50;;;18.35;100.00
50356;BME280;36264;51.296;-0.602;2023-08-20T04:13:15;101860.44;;;18.39;100.00
50356;BME280;36264;51.296;-0.602;2023-08-20T04:15:41;101871.53;;;18.45;100.00
50356;BME280;36264;51.296;-0.602;2023-08-20T04:18:06;101868.75;;;18.49;100.00
50356;BME280;36264;51.296;-0.602;2023-08-20T04:20:32;101875.31;;;18.59;100.00
50356;BME280;36264;51.296;-0.602;2023-08-20T04:22:57;101879.72;;;18.58;100.00
50356;BME280;36264;51.296;-0.602;2023-08-20T04:25:23;101875.00;;;18.65;100.00
50356;BME280;36264;51.296;-0.602;2023-08-20T04:27:48;101888.59;;;18.75;100.00
50356;BME280;36264;51.296;-0.602;2023-08-20T04:30:13;101889.22;;;18.80;100.00
50356;BME280;36264;51.296;-0.602;2023-08-20T04:32:39;101892.44;;;18.87;100.00
50356;BME280;36264;51.296;-0.602;2023-08-20T04:35:05;101891.94;;;18.97;100.00
50356;BME280;36264;51.296;-0.602;2023-08-20T04:37:30;101895.19;;;19.03;100.00
50356;BME280;36264;51.296;-0.602;2023-08-20T04:39:55;101898.53;;;19.06;100.00
50356;BME280;36264;51.296;-0.602;2023-08-20T04:42:21;101901.59;;;19.16;100.00
50356;BME280;36264;51.296;-0.602;2023-08-20T04:44:46;101899.50;;;19.23;100.00
50356;BME280;36264;51.296;-0.602;2023-08-20T04:47:12;101897.09;;;19.35;100.00
50356;BME280;36264;51.296;-0.602;2023-08-20T04:49:40;101899.06;;;19.32;100.00
50356;BME280;36264;51.296;-0.602;2023-08-20T04:52:06;101893.72;;;19.33;100.00
50356;BME280;36264;51.296;-0.602;2023-08-20T04:54:31;101906.09;;;19.31;100.00
50356;BME280;36264;51.296;-0.602;2023-08-20T04:56:57;101903.38;;;19.33;100.00
50356;BME280;36264;51.296;-0.602;2023-08-20T04:59:22;101913.06;;;19.32;100.00
50356;BME280;36264;51.296;-0.602;2023-08-20T05:01:48;101905.00;;;19.35;100.00
50356;BME280;36264;51.296;-0.602;2023-08-20T05:04:14;101909.91;;;19.43;100.00
50356;BME280;36264;51.296;-0.602;2023-08-20T05:06:39;101915.03;;;19.46;100.00
50356;BME280;36264;51.296;-0.602;2023-08-20T05:09:05;101909.38;;;19.54;100.00
50356;BME280;36264;51.296;-0.602;2023-08-20T05:11:30;101911.28;;;19.50;100.00
50356;BME280;36264;51.296;-0.602;2023-08-20T05:13:58;101920.91;;;19.51;100.00
50356;BME280;36264;51.296;-0.602;2023-08-20T05:16:23;101915.78;;;19.48;100.00
50356;BME280;36264;51.296;-0.602;2023-08-20T05:18:48;101922.84;;;19.48;100.00
50356;BME280;36264;51.296;-0.602;2023-08-20T05:21:14;101925.72;;;19.43;100.00
50356;BME280;36264;51.296;-0.602;2023-08-20T05:23:40;101927.16;;;19.49;100.00
50356;BME280;36264;51.296;-0.602;2023-08-20T05:26:06;101925.09;;;19.55;100.00
50356;BME280;36264;51.296;-0.602;2023-08-20T05:28:32;101924.22;;;19.37;100.00
50356;BME280;36264;51.296;-0.602;2023-08-20T05:30:58;101933.75;;;19.40;100.00
50356;BME280;36264;51.296;-0.602;2023-08-20T05:33:24;101935.72;;;19.36;100.00
50356;BME280;36264;51.296;-0.602;2023-08-20T05:35:49;101931.44;;;19.34;100.00
50356;BME280;36264;51.296;-0.602;2023-08-20T05:38:15;101935.59;;;19.38;100.00
50356;BME280;36264;51.296;-0.602;2023-08-20T05:40:41;101945.66;;;19.30;100.00
50356;BME280;36264;51.296;-0.602;2023-08-20T05:43:06;101942.81;;;19.34;100.00
50356;BME280;36264;51.296;-0.602;2023-08-20T05:45:32;101943.63;;;19.36;100.00
50356;BME280;36264;51.296;-0.602;2023-08-20T05:47:57;101943.50;;;19.38;100.00
50356;BME280;36264;51.296;-0.602;2023-08-20T05:50:22;101940.03;;;19.37;100.00
50356;BME280;36264;51.296;-0.602;2023-08-20T05:52:48;101942.75;;;19.36;100.00
50356;BME280;36264;51.296;-0.602;2023-08-20T05:55:14;101938.16;;;19.40;100.00
50356;BME280;36264;51.296;-0.602;2023-08-20T05:57:39;101944.53;;;19.35;100.00
50356;BME280;36264;51.296;-0.602;2023-08-20T06:00:06;101949.44;;;19.43;100.00
50356;BME280;36264;51.296;-0.602;2023-08-20T06:02:32;101947.84;;;19.39;100.00
50356;BME280;36264;51.296;-0.602;2023-08-20T06:04:57;101945.22;;;19.39;100.00
50356;BME280;36264;51.296;-0.602;2023-08-20T06:07:22;101943.34;;;19.41;100.00
50356;BME280;36264;51.296;-0.602;2023-08-20T06:09:48;101945.06;;;19.42;100.00
50356;BME280;36264;51.296;-0.602;2023-08-20T06:12:15;101945.63;;;19.49;100.00
50356;BME280;36264;51.296;-0.602;2023-08-20T06:14:41;101942.84;;;19.52;100.00
50356;BME280;36264;51.296;-0.602;2023-08-20T06:17:06;101946.19;;;19.55;100.00
50356;BME280;36264;51.296;-0.602;2023-08-20T06:19:32;101946.94;;;19.58;100.00
50356;BME280;36264;51.296;-0.602;2023-08-20T06:21:57;101949.22;;;19.65;100.00
50356;BME280;36264;51.296;-0.602;2023-08-20T06:24:23;101951.63;;;19.70;100.00
50356;BME280;36264;51.296;-0.602;2023-08-20T06:26:49;101954.09;;;19.73;100.00
50356;BME280;36264;51.296;-0.602;2023-08-20T06:29:14;101959.28;;;19.75;100.00
50356;BME280;36264;51.296;-0.602;2023-08-20T06:31:40;101960.00;;;19.78;100.00
50356;BME280;36264;51.296;-0.602;2023-08-20T06:34:05;101971.41;;;19.79;100.00
50356;BME280;36264;51.296;-0.602;2023-08-20T06:36:31;101971.09;;;19.85;100.00
50356;BME280;36264;51.296;-0.602;2023-08-20T06:38:56;101969.94;;;19.90;100.00
50356;BME280;36264;51.296;-0.602;2023-08-20T06:41:22;101971.38;;;20.14;100.00
50356;BME280;36264;51.296;-0.602;2023-08-20T06:43:48;101970.31;;;20.00;100.00
50356;BME280;36264;51.296;-0.602;2023-08-20T06:46:13;101978.75;;;20.07;100.00
50356;BME280;36264;51.296;-0.602;2023-08-20T06:48:39;101967.03;;;20.13;100.00
50356;BME280;36264;51.296;-0.602;2023-08-20T06:51:14;101976.97;;;20.41;100.00
50356;BME280;36264;51.296;-0.602;2023-08-20T06:53:40;101982.22;;;20.25;100.00
50356;BME280;36264;51.296;-0.602;2023-08-20T06:56:07;101979.47;;;20.44;100.00
50356;BME280;36264;51.296;-0.602;2023-08-20T06:58:33;101979.38;;;20.45;100.00
50356;BME280;36264;51.296;-0.602;2023-08-20T07:00:59;101980.78;;;20.53;100.00
50356;BME280;36264;51.296;-0.602;2023-08-20T07:03:33;101978.34;;;20.66;100.00
50356;BME280;36264;51.296;-0.602;2023-08-20T07:05:59;101974.00;;;20.65;100.00
50356;BME280;36264;51.296;-0.602;2023-08-20T07:08:24;101969.31;;;20.70;100.00
50356;BME280;36264;51.296;-0.602;2023-08-20T07:10:49;101965.41;;;20.77;100.00
50356;BME280;36264;51.296;-0.602;2023-08-20T07:13:15;101968.41;;;20.71;100.00
50356;BME280;36264;51.296;-0.602;2023-08-20T07:15:40;101974.03;;;20.80;100.00
50356;BME280;36264;51.296;-0.602;2023-08-20T07:18:05;101968.91;;;20.77;100.00
50356;BME280;36264;51.296;-0.602;2023-08-20T07:20:31;101972.00;;;20.86;100.00
50356;BME280;36264;51.296;-0.602;2023-08-20T07:22:56;101977.69;;;20.94;100.00
50356;BME280;36264;51.296;-0.602;2023-08-20T07:25:22;101985.28;;;21.00;100.00
50356;BME280;36264;51.296;-0.602;2023-08-20T07:27:47;101981.34;;;21.07;100.00
50356;BME280;36264;51.296;-0.602;2023-08-20T07:30:12;101977.09;;;21.21;100.00
50356;BME280;36264;51.296;-0.602;2023-08-20T07:32:38;101979.56;;;21.24;100.00
50356;BME280;36264;51.296;-0.602;2023-08-20T07:35:04;101983.47;;;21.32;100.00
50356;BME280;36264;51.296;-0.602;2023-08-20T07:37:29;101980.81;;;21.32;100.00
50356;BME280;36264;51.296;-0.602;2023-08-20T07:39:54;101985.94;;;21.35;100.00
50356;BME280;36264;51.296;-0.602;2023-08-20T07:42:20;101983.69;;;21.44;100.00
50356;BME280;36264;51.296;-0.602;2023-08-20T07:44:45;101987.97;;;21.46;100.00
50356;BME280;36264;51.296;-0.602;2023-08-20T07:47:10;101984.91;;;21.54;100.00
50356;BME280;36264;51.296;-0.602;2023-08-20T07:49:36;101985.50;;;21.59;100.00
50356;BME280;36264;51.296;-0.602;2023-08-20T07:52:01;101985.91;;;21.67;100.00
50356;BME280;36264;51.296;-0.602;2023-08-20T07:54:27;101995.28;;;21.73;100.00
50356;BME280;36264;51.296;-0.602;2023-08-20T07:56:53;101986.38;;;21.74;100.00
50356;BME280;36264;51.296;-0.602;2023-08-20T07:59:19;101986.78;;;21.82;100.00
50356;BME280;36264;51.296;-0.602;2023-08-20T08:01:44;101990.88;;;21.88;100.00
50356;BME280;36264;51.296;-0.602;2023-08-20T08:04:09;101982.91;;;21.74;100.00
50356;BME280;36264;51.296;-0.602;2023-08-20T08:06:35;101986.91;;;21.81;100.00
50356;BME280;36264;51.296;-0.602;2023-08-20T08:09:21;101985.03;;;21.97;100.00
50356;BME280;36264;51.296;-0.602;2023-08-20T08:11:47;101981.63;;;21.81;100.00
50356;BME280;36264;51.296;-0.602;2023-08-20T08:14:13;101980.75;;;21.80;100.00
50356;BME280;36264;51.296;-0.602;2023-08-20T08:16:38;101986.38;;;21.74;100.00
50356;BME280;36264;51.296;-0.602;2023-08-20T08:19:03;101991.16;;;21.98;100.00
50356;BME280;36264;51.296;-0.602;2023-08-20T08:21:29;101997.09;;;22.17;100.00
50356;BME280;36264;51.296;-0.602;2023-08-20T08:23:54;101976.38;;;22.24;100.00
50356;BME280;36264;51.296;-0.602;2023-08-20T08:26:20;101989.00;;;22.35;100.00
50356;BME280;36264;51.296;-0.602;2023-08-20T08:28:45;101990.03;;;22.47;100.00
50356;BME280;36264;51.296;-0.602;2023-08-20T08:31:11;101990.03;;;22.47;100.00
50356;BME280;36264;51.296;-0.602;2023-08-20T08:33:36;101994.09;;;22.52;100.00
50356;BME280;36264;51.296;-0.602;2023-08-20T08:36:01;101988.69;;;22.39;100.00
50356;BME280;36264;51.296;-0.602;2023-08-20T08:38:27;101995.03;;;22.37;100.00
50356;BME280;36264;51.296;-0.602;2023-08-20T08:40:52;101993.50;;;22.47;100.00
50356;BME280;36264;51.296;-0.602;2023-08-20T08:43:18;101993.91;;;22.55;100.00
50356;BME280;36264;51.296;-0.602;2023-08-20T08:45:45;101992.75;;;22.74;100.00
50356;BME280;36264;51.296;-0.602;2023-08-20T08:48:12;102000.88;;;22.71;100.00
50356;BME280;36264;51.296;-0.602;2023-08-20T08:50:38;101997.94;;;22.75;100.00
50356;BME280;36264;51.296;-0.602;2023-08-20T08:53:07;101989.38;;;22.99;100.00
50356;BME280;36264;51.296;-0.602;2023-08-20T08:55:33;101985.03;;;22.98;100.00
50356;BME280;36264;51.296;-0.602;2023-08-20T08:57:58;101998.19;;;23.14;100.00
50356;BME280;36264;51.296;-0.602;2023-08-20T09:00:24;101991.75;;;23.18;100.00
50356;BME280;36264;51.296;-0.602;2023-08-20T09:02:49;101994.94;;;23.23;100.00
50356;BME280;36264;51.296;-0.602;2023-08-20T09:05:15;102003.91;;;23.08;100.00
50356;BME280;36264;51.296;-0.602;2023-08-20T09:07:44;101995.31;;;23.31;100.00
50356;BME280;36264;51.296;-0.602;2023-08-20T09:10:10;102002.16;;;23.07;98.86
50356;BME280;36264;51.296;-0.602;2023-08-20T09:12:35;101993.75;;;23.00;96.85
50356;BME280;36264;51.296;-0.602;2023-08-20T09:15:01;101993.56;;;23.03;97.73
50356;BME280;36264;51.296;-0.602;2023-08-20T09:17:26;102001.53;;;22.89;97.46
50356;BME280;36264;51.296;-0.602;2023-08-20T09:19:54;101990.03;;;23.03;97.33
50356;BME280;36264;51.296;-0.602;2023-08-20T09:22:20;101997.34;;;22.99;98.00
50356;BME280;36264;51.296;-0.602;2023-08-20T09:24:55;101994.88;;;23.10;97.64
50356;BME280;36264;51.296;-0.602;2023-08-20T09:27:21;102007.63;;;23.18;99.02
50356;BME280;36264;51.296;-0.602;2023-08-20T09:29:47;101998.94;;;23.16;97.48
50356;BME280;36264;51.296;-0.602;2023-08-20T09:32:18;101994.53;;;23.29;98.33
50356;BME280;36264;51.296;-0.602;2023-08-20T09:34:44;101996.72;;;23.50;92.65
50356;BME280;36264;51.296;-0.602;2023-08-20T09:37:10;102005.94;;;23.17;97.12
50356;BME280;36264;51.296;-0.602;2023-08-20T09:39:37;102001.59;;;23.02;97.18
50356;BME280;36264;51.296;-0.602;2023-08-20T09:42:04;101998.34;;;23.25;97.47
50356;BME280;36264;51.296;-0.602;2023-08-20T09:44:33;101999.78;;;23.44;97.46
50356;BME280;36264;51.296;-0.602;2023-08-20T09:47:02;102002.44;;;23.44;96.68
50356;BME280;36264;51.296;-0.602;2023-08-20T09:49:29;102000.69;;;23.57;96.29
50356;BME280;36264;51.296;-0.602;2023-08-20T09:51:56;102002.56;;;23.55;96.81
50356;BME280;36264;51.296;-0.602;2023-08-20T09:54:36;102001.03;;;23.78;94.85
50356;BME280;36264;51.296;-0.602;2023-08-20T09:57:07;101994.78;;;23.66;93.96
50356;BME280;36264;51.296;-0.602;2023-08-20T09:59:38;101993.06;;;23.65;92.30
50356;BME280;36264;51.296;-0.602;2023-08-20T10:02:04;101998.44;;;23.51;93.02
50356;BME280;36264;51.296;-0.602;2023-08-20T10:04:30;102002.94;;;23.63;94.13
50356;BME280;36264;51.296;-0.602;2023-08-20T10:06:58;101998.91;;;23.70;92.06
50356;BME280;36264;51.296;-0.602;2023-08-20T10:09:24;102003.13;;;23.60;92.23
50356;BME280;36264;51.296;-0.602;2023-08-20T10:11:49;102002.16;;;23.61;92.00
50356;BME280;36264;51.296;-0.602;2023-08-20T10:14:15;102000.84;;;23.81;92.07
50356;BME280;36264;51.296;-0.602;2023-08-20T10:16:40;101999.53;;;23.74;92.40
50356;BME280;36264;51.296;-0.602;2023-08-20T10:19:06;101996.88;;;23.74;92.38
50356;BME280;36264;51.296;-0.602;2023-08-20T10:21:32;101997.44;;;23.66;91.01
50356;BME280;36264;51.296;-0.602;2023-08-20T10:24:03;102010.44;;;23.84;91.43
50356;BME280;36264;51.296;-0.602;2023-08-20T10:26:28;102010.53;;;23.55;91.07
50356;BME280;36264;51.296;-0.602;2023-08-20T10:31:57;102008.06;;;23.52;90.90
50356;BME280;36264;51.296;-0.602;2023-08-20T10:34:33;102002.38;;;23.85;91.64
50356;BME280;36264;51.296;-0.602;2023-08-20T10:37:02;102005.81;;;23.73;92.46
50356;BME280;36264;51.296;-0.602;2023-08-20T10:39:28;101999.06;;;23.55;92.10
50356;BME280;36264;51.296;-0.602;2023-08-20T10:42:26;102000.56;;;23.86;90.38
50356;BME280;36264;51.296;-0.602;2023-08-20T10:45:05;102007.13;;;23.93;92.79
50356;BME280;36264;51.296;-0.602;2023-08-20T10:47:46;102002.41;;;23.98;92.07
50356;BME280;36264;51.296;-0.602;2023-08-20T10:50:16;102000.59;;;24.12;89.07
50356;BME280;36264;51.296;-0.602;2023-08-20T10:52:47;101993.03;;;24.18;89.21
50356;BME280;36264;51.296;-0.602;2023-08-20T10:55:13;101995.38;;;24.10;89.12
50356;BME280;36264;51.296;-0.602;2023-08-20T10:57:40;102004.75;;;24.16;87.81
50356;BME280;36264;51.296;-0.602;2023-08-20T11:00:06;102001.34;;;24.39;87.17
50356;BME280;36264;51.296;-0.602;2023-08-20T11:02:36;101999.00;;;24.35;84.91
50356;BME280;36264;51.296;-0.602;2023-08-20T11:05:03;101992.47;;;24.52;84.99
50356;BME280;36264;51.296;-0.602;2023-08-20T11:07:30;101991.03;;;24.35;84.72
50356;BME280;36264;51.296;-0.602;2023-08-20T11:09:57;101990.06;;;24.23;83.00
50356;BME280;36264;51.296;-0.602;2023-08-20T11:12:22;101982.97;;;24.36;85.66
50356;BME280;36264;51.296;-0.602;2023-08-20T11:14:48;101980.28;;;24.49;85.94
50356;BME280;36264;51.296;-0.602;2023-08-20T11:17:14;101973.59;;;24.56;85.35
50356;BME280;36264;51.296;-0.602;2023-08-20T11:19:39;101971.91;;;24.68;83.96
50356;BME280;36264;51.296;-0.602;2023-08-20T11:22:05;101973.22;;;24.87;84.62
50356;BME280;36264;51.296;-0.602;2023-08-20T11:24:31;101971.75;;;24.83;81.59
50356;BME280;36264;51.296;-0.602;2023-08-20T11:26:56;101971.38;;;25.00;82.49
50356;BME280;36264;51.296;-0.602;2023-08-20T11:29:21;101964.13;;;25.02;80.63
50356;BME280;36264;51.296;-0.602;2023-08-20T11:31:48;101962.84;;;25.08;78.22
50356;BME280;36264;51.296;-0.602;2023-08-20T11:34:14;101964.72;;;24.82;78.70
50356;BME280;36264;51.296;-0.602;2023-08-20T11:36:39;101963.66;;;24.84;79.83
50356;BME280;36264;51.296;-0.602;2023-08-20T11:39:05;101961.78;;;24.73;78.46
50356;BME280;36264;51.296;-0.602;2023-08-20T11:41:31;101959.53;;;24.80;80.11
50356;BME280;36264;51.296;-0.602;2023-08-20T11:43:57;101955.19;;;24.79;77.57
50356;BME280;36264;51.296;-0.602;2023-08-20T11:46:23;101962.56;;;24.87;76.52
50356;BME280;36264;51.296;-0.602;2023-08-20T11:49:26;101964.13;;;25.02;73.24
50356;BME280;36264;51.296;-0.602;2023-08-20T11:51:51;101967.19;;;24.72;78.33
50356;BME280;36264;51.296;-0.602;2023-08-20T11:54:18;101956.75;;;24.82;78.51
50356;BME280;36264;51.296;-0.602;2023-08-20T11:56:50;101961.03;;;25.08;79.17
50356;BME280;36264;51.296;-0.602;2023-08-20T11:59:20;101958.25;;;25.10;79.59
50356;BME280;36264;51.296;-0.602;2023-08-20T12:01:54;101955.16;;;25.40;77.27
50356;BME280;36264;51.296;-0.602;2023-08-20T12:04:24;101950.84;;;25.51;76.15
50356;BME280;36264;51.296;-0.602;2023-08-20T12:07:13;101947.88;;;25.66;71.84
50356;BME280;36264;51.296;-0.602;2023-08-20T12:09:39;101950.63;;;25.54;75.05
50356;BME280;36264;51.296;-0.602;2023-08-20T12:12:06;101945.31;;;25.65;74.94
50356;BME280;36264;51.296;-0.602;2023-08-20T12:14:31;101945.44;;;25.63;71.84
50356;BME280;36264;51.296;-0.602;2023-08-20T12:16:57;101942.44;;;25.79;70.17
50356;BME280;36264;51.296;-0.602;2023-08-20T12:19:24;101944.94;;;26.05;69.97
50356;BME280;36264;51.296;-0.602;2023-08-20T12:21:49;101942.94;;;25.96;69.14
50356;BME280;36264;51.296;-0.602;2023-08-20T12:24:15;101950.72;;;25.99;70.19
50356;BME280;36264;51.296;-0.602;2023-08-20T12:26:41;101956.81;;;25.65;66.17
50356;BME280;36264;51.296;-0.602;2023-08-20T12:29:07;101956.81;;;25.77;70.08
50356;BME280;36264;51.296;-0.602;2023-08-20T12:31:33;101952.63;;;25.85;71.45
50356;BME280;36264;51.296;-0.602;2023-08-20T12:33:59;101948.00;;;25.76;68.63
50356;BME280;36264;51.296;-0.602;2023-08-20T12:36:24;101942.69;;;25.76;70.99
50356;BME280;36264;51.296;-0.602;2023-08-20T12:38:50;101941.47;;;25.80;70.76
50356;BME280;36264;51.296;-0.602;2023-08-20T12:41:15;101941.00;;;25.86;68.86
50356;BME280;36264;51.296;-0.602;2023-08-20T12:43:41;101949.41;;;26.05;71.76
50356;BME280;36264;51.296;-0.602;2023-08-20T12:46:07;101943.63;;;26.22;69.57